Woodberry Forest, VA

11:59 PM EST on February 06, 2016 (GMT -0500)
Orange County

Weather History for KOMH - March, 2014

Change the Weather History Date:

Thursday, March 20, 2014

  Actual Average Record
Temperature  
Mean Temperature 50 °F -  
Max Temperature 62 °F 56 °F 77 °F (1952)
Min Temperature 37 °F 33 °F 19 °F (1967)
Degree Days  
Heating Degree Days 16    
Moisture  
Dew Point 34 °F    
Average Humidity 59    
Maximum Humidity 100    
Minimum Humidity 20    
Precipitation  
Precipitation 0.00 in - - ()
Sea Level Pressure  
Sea Level Pressure 29.92 in    
Wind  
Wind Speed 8 mph (SW)    
Max Wind Speed 22 mph    
Max Gust Speed 29 mph    
Visibility 8 miles    
Events Fog    
Averages and records for this station are not official NWS values.
T = Trace of Precipitation, MM = Missing Value Source: NWS Daily Summary

Daily Weather History Graph

Daily Weather History Graph

Search for Another Location

Airport or City:

Trip Planner

Search our weather history database for the weather conditions in past years. The results will help you decide how hot, cold, wet, or windy it might be!

Date:

Astronomy

Mar. 20, 2014 Rise Set
Actual Time 7:15 AM EDT 7:24 PM EDT
Civil Twilight 6:49 AM EDT 7:50 PM EDT
Nautical Twilight 6:18 AM EDT 8:21 PM EDT
Astronomical Twilight 5:47 AM EDT 8:52 PM EDT
Moon 11:38 PM EDT (3/20) 9:23 AM EDT (3/20)
Length of Visible Light 13h 01m
Length of Day
12h 08m
Waning Gibbous, 84% of the Moon is Illuminated
Mar 20
Waning Gibbous
Mar 23
Last Quarter
Mar 30
New
Apr 7
First Quarter
Apr 15
Full

Hourly Weather History & Observations

Time (EDT) Temp. Windchill Dew Point Humidity Pressure Visibility Wind Dir Wind Speed Gust Speed Precip Events Conditions
12:15 AM 46.4 °F 42.4 °F 46.4 °F 100% 29.87 in 7.0 mi South 8.1 mph - N/A   Overcast
12:35 AM 46.4 °F 42.9 °F 46.4 °F 100% 29.87 in 7.0 mi South 6.9 mph - N/A   Mostly Cloudy
12:55 AM 46.4 °F 42.4 °F 46.4 °F 100% 29.86 in 7.0 mi South 8.1 mph - N/A   Mostly Cloudy
1:15 AM 46.4 °F 45.2 °F 46.4 °F 100% 29.85 in 5.0 mi South 3.5 mph - N/A   Overcast
1:35 AM 46.4 °F 43.5 °F 46.4 °F 100% 29.85 in 4.0 mi SSW 5.8 mph - N/A   Overcast
1:55 AM 46.4 °F 45.2 °F 46.4 °F 100% 29.86 in 4.0 mi West 3.5 mph - N/A   Overcast
2:15 AM 44.6 °F 41.4 °F 44.6 °F 100% 29.85 in 0.5 mi South 5.8 mph - N/A Fog Fog
2:35 AM 44.6 °F - 44.6 °F 100% 29.86 in 0.2 mi Calm Calm - N/A Fog Fog
2:55 AM 44.6 °F - 44.6 °F 100% 29.86 in 0.5 mi Calm Calm - N/A Fog Fog
3:15 AM 44.6 °F - 44.6 °F 100% 29.86 in 0.5 mi Calm Calm - N/A Fog Fog
3:35 AM 42.8 °F 41.1 °F 42.8 °F 100% 29.86 in 0.5 mi East 3.5 mph - N/A Fog Fog
3:55 AM 42.8 °F 41.1 °F 42.8 °F 100% 29.85 in 0.2 mi SE 3.5 mph - N/A Fog Fog
4:15 AM 41.0 °F 39.0 °F 41.0 °F 100% 29.85 in 0.5 mi South 3.5 mph - N/A Fog Fog
4:35 AM 39.2 °F - 39.2 °F 100% 29.85 in 0.2 mi Calm Calm - N/A Fog Fog
4:55 AM 37.4 °F 33.8 °F 37.4 °F 100% 29.86 in 0.5 mi South 4.6 mph - N/A Fog Fog
5:15 AM 39.2 °F - 39.2 °F 100% 29.87 in 0.5 mi Calm Calm - N/A Fog Fog
5:35 AM 39.2 °F 34.2 °F 39.2 °F 100% 29.88 in 1.2 mi SW 6.9 mph - N/A   Mist
5:55 AM 42.8 °F 39.3 °F 42.8 °F 100% 29.88 in 10.0 mi SW 5.8 mph - N/A   Clear
6:15 AM 41.0 °F 36.4 °F 41.0 °F 100% 29.88 in 10.0 mi SSW 6.9 mph - N/A   Clear
6:35 AM 41.0 °F 38.0 °F 41.0 °F 100% 29.89 in 10.0 mi SW 4.6 mph - N/A   Clear
6:55 AM 42.8 °F 40.1 °F 42.8 °F 100% 29.90 in 10.0 mi SW 4.6 mph - N/A   Clear
7:15 AM 39.2 °F - 39.2 °F 100% 29.90 in 5.0 mi Calm Calm - N/A   Clear
7:35 AM 39.2 °F - 39.2 °F 100% 29.91 in 4.0 mi Calm Calm - N/A   Clear
7:55 AM 41.0 °F - 41.0 °F 100% 29.91 in 5.0 mi Calm Calm - N/A   Clear
8:15 AM 41.0 °F 39.0 °F 41.0 °F 100% 29.91 in 10.0 mi South 3.5 mph - N/A   Clear
8:35 AM 44.6 °F 43.1 °F 44.6 °F 100% 29.92 in 10.0 mi SSW 3.5 mph - N/A   Clear
8:55 AM 48.2 °F - 48.2 °F 100% 29.92 in 10.0 mi SSW 3.5 mph - N/A   Clear
9:15 AM 53.6 °F - 42.8 °F 67% 29.92 in 10.0 mi WSW 8.1 mph - N/A   Clear
9:35 AM 55.4 °F - 41.0 °F 58% 29.93 in 10.0 mi WSW 9.2 mph 17.3 mph N/A   Clear
9:55 AM 55.4 °F - 39.2 °F 54% 29.93 in 10.0 mi WSW 12.7 mph 17.3 mph N/A   Clear
10:15 AM 55.4 °F - 37.4 °F 51% 29.93 in 10.0 mi West 11.5 mph - N/A   Clear
10:35 AM 57.2 °F - 35.6 °F 44% 29.94 in 10.0 mi WSW 13.8 mph 26.5 mph N/A   Clear
10:55 AM 57.2 °F - 35.6 °F 44% 29.94 in 10.0 mi WSW 10.4 mph 20.7 mph N/A   Clear
11:15 AM 59.0 °F - 33.8 °F 39% 29.94 in 10.0 mi WSW 19.6 mph 23.0 mph N/A   Clear
11:35 AM 59.0 °F - 35.6 °F 42% 29.94 in 10.0 mi West 11.5 mph - N/A   Clear
11:55 AM 59.0 °F - 33.8 °F 39% 29.94 in 10.0 mi WSW 15.0 mph 19.6 mph N/A   Clear
12:15 PM 60.8 °F - 32.0 °F 34% 29.94 in 10.0 mi WSW 12.7 mph - N/A   Clear
12:35 PM 60.8 °F - 33.8 °F 36% 29.93 in 10.0 mi West 15.0 mph 21.9 mph N/A   Clear
12:55 PM 60.8 °F - 32.0 °F 34% 29.93 in - SW 11.5 mph - N/A   Unknown
1:15 PM 60.8 °F - 32.0 °F 34% 29.93 in 10.0 mi WSW 13.8 mph 24.2 mph N/A   Clear
1:35 PM 62.6 °F - 30.2 °F 30% 29.93 in 10.0 mi WSW 15.0 mph 23.0 mph N/A   Clear
1:55 PM 62.6 °F - 28.4 °F 27% 29.93 in 10.0 mi SSW 15.0 mph 21.9 mph N/A   Clear
2:15 PM 62.6 °F - 28.4 °F 27% 29.93 in 10.0 mi WSW 17.3 mph 25.3 mph N/A   Clear
2:35 PM 62.6 °F - 28.4 °F 27% 29.92 in 10.0 mi West 13.8 mph 23.0 mph N/A   Clear
2:55 PM 62.6 °F - 26.6 °F 26% 29.92 in 10.0 mi West 13.8 mph 24.2 mph N/A   Clear
3:15 PM 62.6 °F - 26.6 °F 26% 29.91 in 10.0 mi WSW 21.9 mph 26.5 mph N/A   Clear
3:35 PM 62.6 °F - 26.6 °F 26% 29.91 in 10.0 mi SW 12.7 mph 21.9 mph N/A   Clear
3:55 PM 62.6 °F - 24.8 °F 24% 29.91 in 10.0 mi WSW 11.5 mph 20.7 mph N/A   Scattered Clouds
4:15 PM 62.6 °F - 24.8 °F 24% 29.91 in 10.0 mi WSW 20.7 mph 27.6 mph N/A   Scattered Clouds
4:35 PM 62.6 °F - 23.0 °F 22% 29.91 in 10.0 mi WSW 16.1 mph 28.8 mph N/A   Clear
4:55 PM 62.6 °F - 23.0 °F 22% 29.90 in 10.0 mi SSW 13.8 mph 24.2 mph N/A   Clear
5:15 PM 62.6 °F - 21.2 °F 20% 29.91 in 10.0 mi SW 19.6 mph 27.6 mph N/A   Clear
5:35 PM 62.6 °F - 23.0 °F 22% 29.91 in 10.0 mi WSW 17.3 mph 25.3 mph N/A   Clear
5:55 PM 62.6 °F - 23.0 °F 22% 29.92 in 10.0 mi West 16.1 mph 24.2 mph N/A   Clear
6:15 PM 60.8 °F - 23.0 °F 23% 29.92 in 10.0 mi WSW 12.7 mph 23.0 mph N/A   Clear
6:35 PM 60.8 °F - 23.0 °F 23% 29.93 in 10.0 mi WSW 11.5 mph 25.3 mph N/A   Clear
6:55 PM 59.0 °F - 23.0 °F 25% 29.94 in 10.0 mi WSW 13.8 mph 21.9 mph N/A   Clear
7:15 PM 59.0 °F - 23.0 °F 25% 29.95 in 10.0 mi West 9.2 mph 17.3 mph N/A   Clear
7:35 PM 57.2 °F - 23.0 °F 27% 29.96 in 10.0 mi West 5.8 mph 10.4 mph N/A   Clear
7:55 PM 55.4 °F - 24.8 °F 31% 29.98 in 10.0 mi West 9.2 mph - N/A   Clear
8:15 PM 53.6 °F - 24.8 °F 33% 29.98 in 10.0 mi West 10.4 mph - N/A   Clear
8:35 PM 53.6 °F - 26.6 °F 35% 30.00 in 10.0 mi West 6.9 mph - N/A   Clear
8:55 PM 53.6 °F - 26.6 °F 35% 30.01 in 10.0 mi WNW 6.9 mph - N/A   Clear
9:15 PM 53.6 °F - 26.6 °F 35% 30.01 in 10.0 mi West 9.2 mph - N/A   Clear
9:35 PM 51.8 °F - 26.6 °F 38% 30.03 in 10.0 mi West 9.2 mph - N/A   Clear
9:55 PM 53.6 °F - 26.6 °F 35% 30.03 in 10.0 mi WSW 10.4 mph 17.3 mph N/A   Clear
10:15 PM 51.8 °F - 26.6 °F 38% 30.03 in 10.0 mi West 10.4 mph - N/A   Clear
10:35 PM 51.8 °F - 26.6 °F 38% 30.03 in 10.0 mi West 6.9 mph - N/A   Clear
10:55 PM 51.8 °F - 26.6 °F 38% 30.03 in 10.0 mi WSW 9.2 mph - N/A   Clear
11:15 PM 51.8 °F - 26.6 °F 38% 30.03 in 10.0 mi SW 5.8 mph - N/A   Clear
11:35 PM 50.0 °F - 26.6 °F 40% 30.03 in 10.0 mi WSW 9.2 mph - N/A   Clear
11:55 PM 44.6 °F 43.1 °F 30.2 °F 57% 30.03 in 10.0 mi SSW 3.5 mph - N/A   Clear